createdAt,value
2019-05-18T00:03:06.519Z,1010.15
2019-05-18T00:08:06.765Z,1010.1
2019-05-18T00:13:06.369Z,1010.09
2019-05-18T00:18:06.353Z,1010.14
2019-05-18T00:23:06.662Z,1010.07
2019-05-18T00:27:06.403Z,1010.09
2019-05-18T00:32:06.438Z,1010.08
2019-05-18T00:37:06.728Z,1010.05
2019-05-18T00:42:06.322Z,1009.91
2019-05-18T00:47:06.393Z,1009.98
2019-05-18T00:52:06.749Z,1009.94
2019-05-18T00:57:07.030Z,1009.96
2019-05-18T01:02:06.550Z,1009.95
2019-05-18T01:06:08.588Z,1009.99
2019-05-18T01:11:07.649Z,1010.02
2019-05-18T01:16:06.686Z,1010.05
2019-05-18T01:21:07.073Z,1010.04
2019-05-18T01:26:07.232Z,1010.04
2019-05-18T01:31:06.665Z,1010.11
2019-05-18T01:36:06.859Z,1010.08
2019-05-18T01:41:06.709Z,1010.11
2019-05-18T01:45:17.639Z,1010.1
2019-05-18T01:50:06.939Z,1010.11
2019-05-18T01:55:07.171Z,1010.13
2019-05-18T02:00:08.231Z,1010.19
2019-05-18T02:05:07.212Z,1010.07
2019-05-18T02:10:06.853Z,1010
2019-05-18T02:19:06.705Z,1010.03
2019-05-18T02:24:06.992Z,1010.08
2019-05-18T02:29:06.378Z,1010.06
2019-05-18T02:34:06.646Z,1010.09
2019-05-18T02:39:07.497Z,1010.07
2019-05-18T02:44:06.802Z,1010.04
2019-05-18T02:49:06.810Z,1010
2019-05-18T02:53:06.012Z,1009.91
2019-05-18T02:58:06.402Z,1009.96
2019-05-18T03:03:07.340Z,1009.89
2019-05-18T03:08:06.628Z,1009.89
2019-05-18T03:13:06.360Z,1009.87
2019-05-18T03:18:06.734Z,1009.79
2019-05-18T03:23:07.014Z,1009.84
2019-05-18T03:28:06.248Z,1009.82
2019-05-18T03:32:06.452Z,1009.81
2019-05-18T03:37:06.671Z,1009.85
2019-05-18T03:42:06.299Z,1009.78
2019-05-18T03:47:06.494Z,1009.78
2019-05-18T03:52:06.756Z,1009.78
2019-05-18T03:57:05.930Z,1009.76
2019-05-18T04:02:07.172Z,1009.66
2019-05-18T04:06:06.322Z,1009.7
2019-05-18T04:11:06.060Z,1009.68
2019-05-18T04:16:06.833Z,1009.79
2019-05-18T04:21:06.101Z,1009.73
2019-05-18T04:26:06.569Z,1009.77
2019-05-18T04:31:06.921Z,1009.74
2019-05-18T04:36:06.126Z,1009.74
2019-05-18T04:41:06.788Z,1009.77
2019-05-18T04:46:06.809Z,1009.75
2019-05-18T04:50:06.849Z,1009.81
2019-05-18T04:55:08.829Z,1009.76
2019-05-18T05:00:08.015Z,1009.78
2019-05-18T05:05:06.747Z,1009.8
2019-05-18T05:10:06.374Z,1009.7
2019-05-18T05:15:08.369Z,1009.72
2019-05-18T05:20:18.589Z,1009.67
2019-05-18T05:25:06.259Z,1009.58
2019-05-18T05:34:06.842Z,1009.52
2019-05-18T05:39:07.559Z,1009.52
2019-05-18T05:44:06.932Z,1009.59
2019-05-18T05:49:07.150Z,1009.6
2019-05-18T05:54:06.445Z,1009.58
2019-05-18T05:59:06.630Z,1009.61
2019-05-18T06:04:06.815Z,1009.58
2019-05-18T06:09:06.523Z,1009.65
2019-05-18T06:13:06.335Z,1009.59
2019-05-18T06:18:06.875Z,1009.63
2019-05-18T06:23:07.087Z,1009.59
2019-05-18T06:28:06.114Z,1009.48
2019-05-18T06:33:06.236Z,1009.53
2019-05-18T06:38:06.479Z,1009.57
2019-05-18T06:43:06.008Z,1009.54
2019-05-18T06:47:06.755Z,1009.48
2019-05-18T06:52:06.970Z,1009.61
2019-05-18T06:57:07.224Z,1009.58
2019-05-18T07:02:06.608Z,1009.51
2019-05-18T07:07:07.162Z,1009.57
2019-05-18T07:12:06.926Z,1009.6
2019-05-18T07:17:07.279Z,1009.59
2019-05-18T07:21:22.521Z,1009.55
2019-05-18T07:26:06.964Z,1009.43
2019-05-18T07:31:06.298Z,1009.51
2019-05-18T07:36:06.575Z,1009.66
2019-05-18T07:41:07.066Z,1009.48
2019-05-18T07:46:09.171Z,1009.63
2019-05-18T07:50:06.329Z,1009.48
2019-05-18T07:55:06.560Z,1009.5
2019-05-18T08:00:08.058Z,1009.47
2019-05-18T08:05:05.923Z,1009.36
2019-05-18T08:10:06.830Z,1009.34
2019-05-18T08:15:08.143Z,1009.48
2019-05-18T08:20:06.456Z,1009.43
2019-05-18T08:24:06.591Z,1009.5
2019-05-18T08:29:05.914Z,1009.6
2019-05-18T08:34:06.337Z,1009.43
2019-05-18T08:39:06.989Z,1009.48
2019-05-18T08:44:06.537Z,1009.38
2019-05-18T08:49:06.475Z,1009.44
2019-05-18T08:53:06.285Z,1009.45
2019-05-18T08:58:06.515Z,1009.42
2019-05-18T09:03:06.786Z,1009.39
2019-05-18T09:08:05.949Z,1009.51
2019-05-18T09:13:06.590Z,1009.42
2019-05-18T09:18:05.998Z,1009.41
2019-05-18T09:23:06.296Z,1009.48
2019-05-18T09:28:06.260Z,1009.32
2019-05-18T09:32:07.056Z,1009.19
2019-05-18T09:37:07.247Z,1009.13
2019-05-18T09:42:06.863Z,1009.09
2019-05-18T09:47:06.973Z,1009.1
2019-05-18T09:52:06.215Z,1009.1
2019-05-18T09:57:06.439Z,1008.97
2019-05-18T10:01:07.020Z,1008.91
2019-05-18T10:02:06.629Z,1008.91
2019-05-18T10:06:06.143Z,1008.91
2019-05-18T10:11:06.758Z,1008.84
2019-05-18T10:16:06.394Z,1008.85
2019-05-18T10:21:06.589Z,1008.97
2019-05-18T10:26:06.509Z,1008.87
2019-05-18T10:30:09.156Z,1008.95
2019-05-18T10:31:06.211Z,1008.95
2019-05-18T10:35:06.934Z,1008.9
2019-05-18T10:40:06.578Z,1008.98
2019-05-18T10:45:08.250Z,1008.93
2019-05-18T10:50:06.970Z,1008.81
2019-05-18T10:55:06.380Z,1008.84
2019-05-18T11:00:08.447Z,1008.8
2019-05-18T11:05:06.011Z,1008.67
2019-05-18T11:09:06.818Z,1008.65
2019-05-18T11:14:05.983Z,1008.68
2019-05-18T11:19:06.403Z,1008.51
2019-05-18T11:24:06.671Z,1008.54
2019-05-18T11:29:06.896Z,1008.41
2019-05-18T11:34:06.290Z,1008.41
2019-05-18T11:39:07.019Z,1008.38
2019-05-18T11:43:06.705Z,1008.37
2019-05-18T11:48:06.860Z,1008.34
2019-05-18T11:53:07.265Z,1008.39
2019-05-18T11:58:06.112Z,1008.41
2019-05-18T12:03:06.395Z,1008.3
2019-05-18T12:08:06.644Z,1008.29
2019-05-18T12:13:07.215Z,1008.33
2019-05-18T12:17:06.418Z,1008.35
2019-05-18T12:22:06.630Z,1008.26
2019-05-18T12:27:06.810Z,1008.32
2019-05-18T12:32:05.914Z,1008.19
2019-05-18T12:37:06.136Z,1008.18
2019-05-18T12:42:07.612Z,1008.1
2019-05-18T12:46:07.149Z,1008.11
2019-05-18T12:47:06.805Z,1008.11
2019-05-18T12:51:06.885Z,1008.1
2019-05-18T12:56:07.118Z,1008.06
2019-05-18T13:01:07.015Z,1007.96
2019-05-18T13:06:06.294Z,1007.99
2019-05-18T13:11:06.988Z,1007.93
2019-05-18T13:16:07.254Z,1007.96
2019-05-18T13:20:06.755Z,1007.94
2019-05-18T13:25:07.139Z,1007.86
2019-05-18T13:30:07.807Z,1007.85
2019-05-18T13:35:06.411Z,1007.79
2019-05-18T13:40:07.023Z,1007.77
2019-05-18T13:45:07.693Z,1007.79
2019-05-18T13:50:06.743Z,1007.56
2019-05-18T13:55:07.245Z,1007.6
2019-05-18T13:59:06.978Z,1007.65
2019-05-18T14:04:06.659Z,1007.56
2019-05-18T14:09:07.295Z,1007.58
2019-05-18T14:14:06.515Z,1007.52
2019-05-18T14:19:06.646Z,1007.48
2019-05-18T14:24:06.504Z,1007.43
2019-05-18T14:29:07.045Z,1007.49
2019-05-18T14:33:06.062Z,1007.32
2019-05-18T14:38:06.821Z,1007.4
2019-05-18T14:43:06.297Z,1007.5
2019-05-18T14:48:06.562Z,1007.37
2019-05-18T14:53:06.554Z,1007.4
2019-05-18T14:58:06.480Z,1007.39
2019-05-18T15:03:06.645Z,1007.31
2019-05-18T15:08:06.324Z,1007.39
2019-05-18T15:12:05.939Z,1007.29
2019-05-18T15:17:07.038Z,1007.22
2019-05-18T15:22:06.243Z,1007.38
2019-05-18T15:27:06.820Z,1007.33
2019-05-18T15:32:06.422Z,1007.35
2019-05-18T15:37:06.930Z,1007.29
2019-05-18T15:42:06.049Z,1007.24
2019-05-18T15:47:06.466Z,1007.21
2019-05-18T15:51:06.921Z,1007.18
2019-05-18T15:56:06.780Z,1007.19
2019-05-18T16:01:06.612Z,1007.11
2019-05-18T16:06:07.153Z,1007.16
2019-05-18T16:11:06.366Z,1007.2
2019-05-18T16:16:06.857Z,1007.25
2019-05-18T16:21:06.857Z,1007.33
2019-05-18T16:26:22.070Z,1007.24
2019-05-18T16:30:07.415Z,1007.18
2019-05-18T16:35:06.574Z,1007.22
2019-05-18T16:40:06.858Z,1007.24
2019-05-18T16:45:07.940Z,1007.21
2019-05-18T16:50:06.347Z,1007.21
2019-05-18T16:55:06.950Z,1007.28
2019-05-18T17:00:09.054Z,1007.22
2019-05-18T17:05:06.763Z,1007.24
2019-05-18T17:09:06.463Z,1007.27
2019-05-18T17:14:07.120Z,1007.27
2019-05-18T17:19:06.742Z,1007.2
2019-05-18T17:24:06.673Z,1007.17
2019-05-18T17:29:06.551Z,1007.23
2019-05-18T17:34:06.909Z,1007.21
2019-05-18T17:39:07.216Z,1007.19
2019-05-18T17:43:07.056Z,1007.18
2019-05-18T17:48:06.219Z,1007.1
2019-05-18T17:53:06.797Z,1007.23
2019-05-18T17:58:06.690Z,1007.31
2019-05-18T18:03:06.783Z,1007.26
2019-05-18T18:08:06.618Z,1007.23
2019-05-18T18:13:09.894Z,1007.23
2019-05-18T18:17:06.049Z,1007.25
2019-05-18T18:22:06.904Z,1007.24
2019-05-18T18:27:06.844Z,1007.41
2019-05-18T18:32:06.606Z,1007.35
2019-05-18T18:37:06.920Z,1007.37
2019-05-18T18:41:06.924Z,1007.41
2019-05-18T18:42:05.957Z,1007.41
2019-05-18T18:46:06.135Z,1007.46
2019-05-18T18:51:06.359Z,1007.52
2019-05-18T18:56:06.688Z,1007.63
2019-05-18T19:01:06.402Z,1007.62
2019-05-18T19:06:06.664Z,1007.72
2019-05-18T19:11:06.512Z,1007.76
2019-05-18T19:15:07.837Z,1007.89
2019-05-18T19:20:06.232Z,1007.89
2019-05-18T19:25:06.836Z,1008.05
2019-05-18T19:30:09.863Z,1008.01
2019-05-18T19:35:06.586Z,1008.03
2019-05-18T19:40:06.085Z,1007.98
2019-05-18T19:45:07.371Z,1008.01
2019-05-18T19:49:06.228Z,1007.99
2019-05-18T19:54:06.497Z,1008.08
2019-05-18T19:59:06.861Z,1008.2
2019-05-18T20:04:06.092Z,1008.25
2019-05-18T20:09:06.814Z,1008.26
2019-05-18T20:14:06.278Z,1008.32
2019-05-18T20:19:06.532Z,1008.36
2019-05-18T20:24:06.866Z,1008.33
2019-05-18T20:28:06.618Z,1008.35
2019-05-18T20:33:06.805Z,1008.35
2019-05-18T20:38:07.018Z,1008.35
2019-05-18T20:43:06.815Z,1008.29
2019-05-18T20:48:07.019Z,1008.35
2019-05-18T20:53:07.202Z,1008.34
2019-05-18T20:58:06.333Z,1008.32
2019-05-18T21:02:06.546Z,1008.41
2019-05-18T21:07:06.797Z,1008.29
2019-05-18T21:12:06.437Z,1008.27
2019-05-18T21:17:06.499Z,1008.35
2019-05-18T21:22:06.910Z,1008.35
2019-05-18T21:27:07.203Z,1008.41
2019-05-18T21:32:06.440Z,1008.38
2019-05-18T21:36:06.565Z,1008.33
2019-05-18T21:41:06.217Z,1008.32
2019-05-18T21:46:07.249Z,1008.3
2019-05-18T21:51:06.559Z,1008.2
2019-05-18T21:56:06.067Z,1008.23
2019-05-18T22:01:06.446Z,1008.17
2019-05-18T22:06:06.679Z,1008.27
2019-05-18T22:11:06.086Z,1008.19
2019-05-18T22:16:06.032Z,1008.2
2019-05-18T22:21:06.247Z,1008.25
2019-05-18T22:26:06.532Z,1008.36
2019-05-18T22:30:07.223Z,1008.34
2019-05-18T22:35:06.184Z,1008.39
2019-05-18T22:40:06.882Z,1008.34
2019-05-18T22:45:07.329Z,1008.38
2019-05-18T22:50:06.596Z,1008.24
2019-05-18T22:55:06.901Z,1008.21
2019-05-18T23:00:08.162Z,1008.24
2019-05-18T23:04:06.081Z,1008.32
2019-05-18T23:09:06.755Z,1008.22
2019-05-18T23:14:06.076Z,1008.22
2019-05-18T23:19:06.429Z,1008.26
2019-05-18T23:24:06.748Z,1008.21
2019-05-18T23:29:06.141Z,1008.13
2019-05-18T23:34:06.342Z,1008.09
2019-05-18T23:39:06.928Z,1008
2019-05-18T23:44:06.159Z,1007.9
2019-05-18T23:48:07.037Z,1007.9
2019-05-18T23:53:06.740Z,1007.81
2019-05-18T23:58:06.644Z,1007.85
